createdAt,value
2023-02-03T00:01:05.726Z,100148.00
2023-02-03T00:02:38.994Z,100147.00
2023-02-03T00:04:12.282Z,100138.00
2023-02-03T00:05:47.635Z,100139.00
2023-02-03T00:07:20.844Z,100147.00
2023-02-03T00:08:56.642Z,100142.00
2023-02-03T00:10:29.961Z,100137.00
2023-02-03T00:12:03.241Z,100126.00
2023-02-03T00:13:37.205Z,100109.00
2023-02-03T00:15:11.387Z,100101.00
2023-02-03T00:16:44.604Z,100114.00
2023-02-03T00:18:17.916Z,100113.00
2023-02-03T00:19:51.002Z,100115.00
2023-02-03T00:21:25.426Z,100127.00
2023-02-03T00:23:05.234Z,100115.00
2023-02-03T00:24:38.620Z,100116.00
2023-02-03T00:26:14.491Z,100114.00
2023-02-03T00:27:48.983Z,100108.00
2023-02-03T00:29:25.661Z,100108.00
2023-02-03T00:30:58.791Z,100112.00
2023-02-03T00:32:32.201Z,100108.00
2023-02-03T00:34:05.601Z,100102.00
2023-02-03T00:35:40.217Z,100106.00
2023-02-03T00:37:15.249Z,100105.00
2023-02-03T00:38:48.953Z,100105.00
2023-02-03T00:40:23.042Z,100105.00
2023-02-03T00:41:56.381Z,100098.00
2023-02-03T00:43:30.269Z,100109.00
2023-02-03T00:45:03.809Z,100087.00
2023-02-03T00:46:37.136Z,100095.00
2023-02-03T00:48:10.265Z,100107.00
2023-02-03T00:49:43.415Z,100102.00
2023-02-03T00:51:16.727Z,100105.00
2023-02-03T00:52:51.289Z,100094.00
2023-02-03T00:54:24.839Z,100108.00
2023-02-03T00:55:57.982Z,100109.00
2023-02-03T00:57:31.311Z,100101.00
2023-02-03T00:59:04.636Z,100105.00
2023-02-03T01:00:36.831Z,100108.00
2023-02-03T01:02:10.176Z,100115.00
2023-02-03T01:03:43.378Z,100112.00
2023-02-03T01:05:16.679Z,100099.00
2023-02-03T01:06:49.970Z,100098.00
2023-02-03T01:08:23.650Z,100103.00
2023-02-03T01:09:56.965Z,100104.00
2023-02-03T01:11:30.180Z,100108.00
2023-02-03T01:13:03.330Z,100121.00
2023-02-03T01:14:36.743Z,100121.00
2023-02-03T01:16:13.073Z,100128.00
2023-02-03T01:17:46.276Z,100127.00
2023-02-03T01:19:19.569Z,100142.00
2023-02-03T01:20:51.746Z,100143.00
2023-02-03T01:22:24.890Z,100142.00
2023-02-03T01:24:01.055Z,100136.00
2023-02-03T01:25:36.782Z,100132.00
2023-02-03T01:27:10.539Z,100153.00
2023-02-03T01:28:43.703Z,100165.00
2023-02-03T01:30:18.857Z,100148.00
2023-02-03T01:31:52.655Z,100154.00
2023-02-03T01:33:25.973Z,100142.00
2023-02-03T01:34:58.145Z,100143.00
2023-02-03T01:36:34.228Z,100128.00
2023-02-03T01:38:08.846Z,100123.00
2023-02-03T01:39:42.346Z,100127.00
2023-02-03T01:41:18.303Z,100108.00
2023-02-03T01:42:51.974Z,100129.00
2023-02-03T01:44:47.520Z,100114.00
2023-02-03T01:46:31.475Z,100139.00
2023-02-03T01:48:05.757Z,100122.00
2023-02-03T01:49:40.560Z,100122.00
2023-02-03T01:51:13.886Z,100138.00
2023-02-03T01:52:52.602Z,100140.00
2023-02-03T01:54:30.117Z,100136.00
2023-02-03T01:56:06.388Z,100151.00
2023-02-03T01:57:48.069Z,100145.00
2023-02-03T01:59:24.946Z,100149.00
2023-02-03T02:01:00.055Z,100128.00
2023-02-03T02:02:34.134Z,100132.00
2023-02-03T02:04:09.754Z,100135.00
2023-02-03T02:05:51.323Z,100132.00
2023-02-03T02:07:24.473Z,100126.00
2023-02-03T02:09:01.748Z,100129.00
2023-02-03T02:10:35.326Z,100132.00
2023-02-03T02:12:10.905Z,100132.00
2023-02-03T02:13:46.860Z,100134.00
2023-02-03T02:15:30.211Z,100129.00
2023-02-03T02:17:13.739Z,100136.00
2023-02-03T02:19:29.643Z,100145.00
2023-02-03T02:21:51.249Z,100132.00
2023-02-03T02:24:01.038Z,100106.00
2023-02-03T02:26:23.904Z,100094.00
2023-02-03T02:28:55.987Z,100103.00
2023-02-03T02:30:52.896Z,100112.00
2023-02-03T02:32:56.430Z,100100.00
2023-02-03T02:34:50.553Z,100110.00
2023-02-03T02:36:36.372Z,100103.00
2023-02-03T02:38:24.460Z,100097.00
2023-02-03T02:40:08.340Z,100087.00
2023-02-03T02:41:47.385Z,100066.00
2023-02-03T02:43:27.608Z,100073.00
2023-02-03T02:45:16.037Z,100065.00
2023-02-03T02:46:54.791Z,100076.00
2023-02-03T02:48:36.960Z,100078.00
2023-02-03T02:50:20.902Z,100076.00
2023-02-03T02:51:56.276Z,100081.00
2023-02-03T02:53:36.863Z,100082.00
2023-02-03T02:55:16.092Z,100076.00
2023-02-03T02:56:54.551Z,100065.00
2023-02-03T02:58:32.517Z,100078.00
2023-02-03T03:00:06.645Z,100095.00
2023-02-03T03:01:41.178Z,100079.00
2023-02-03T03:03:18.415Z,100078.00
2023-02-03T03:04:53.092Z,100062.00
2023-02-03T03:06:34.331Z,100040.00
2023-02-03T03:08:10.236Z,100043.00
2023-02-03T03:09:49.607Z,100033.00
2023-02-03T03:11:25.798Z,100037.00
2023-02-03T03:13:05.466Z,100045.00
2023-02-03T03:14:44.090Z,100040.00
2023-02-03T03:16:21.972Z,100067.00
2023-02-03T03:18:05.428Z,100083.00
2023-02-03T03:19:44.735Z,100099.00
2023-02-03T03:21:25.254Z,100123.00
2023-02-03T03:23:07.249Z,100140.00
2023-02-03T03:24:47.082Z,100140.00
2023-02-03T03:26:28.749Z,100125.00
2023-02-03T03:28:09.563Z,100122.00
2023-02-03T03:29:50.587Z,100114.00
2023-02-03T03:31:24.248Z,100110.00
2023-02-03T03:32:58.427Z,100102.00
2023-02-03T03:34:33.132Z,100097.00
2023-02-03T03:36:23.462Z,100092.00
2023-02-03T03:38:06.586Z,100105.00
2023-02-03T03:39:48.329Z,100102.00
2023-02-03T03:41:31.892Z,100096.00
2023-02-03T03:43:14.299Z,100105.00
2023-02-03T03:44:54.806Z,100101.00
2023-02-03T03:46:31.495Z,100104.00
2023-02-03T03:48:10.679Z,100082.00
2023-02-03T03:49:48.293Z,100094.00
2023-02-03T03:51:29.424Z,100087.00
2023-02-03T03:53:06.476Z,100085.00
2023-02-03T03:54:42.049Z,100093.00
2023-02-03T03:56:29.878Z,100090.00
2023-02-03T03:58:08.261Z,100095.00
2023-02-03T03:59:46.771Z,100095.00
2023-02-03T04:01:23.402Z,100079.00
2023-02-03T04:03:00.796Z,100080.00
2023-02-03T04:04:37.583Z,100085.00
2023-02-03T04:06:11.041Z,100069.00
2023-02-03T04:07:48.291Z,100074.00
2023-02-03T04:09:20.522Z,100070.00
2023-02-03T04:10:53.677Z,100067.00
2023-02-03T04:12:25.833Z,100081.00
2023-02-03T04:13:59.139Z,100082.00
2023-02-03T04:15:33.984Z,100081.00
2023-02-03T04:17:07.190Z,100076.00
2023-02-03T04:18:40.483Z,100069.00
2023-02-03T04:20:14.995Z,100077.00
2023-02-03T04:21:48.235Z,100076.00
2023-02-03T04:23:22.774Z,100079.00
2023-02-03T04:24:58.809Z,100077.00
2023-02-03T04:26:31.012Z,100079.00
2023-02-03T04:28:06.208Z,100078.00
2023-02-03T04:29:39.508Z,100068.00
2023-02-03T04:31:11.698Z,100073.00
2023-02-03T04:32:44.993Z,100068.00
2023-02-03T04:34:18.215Z,100064.00
2023-02-03T04:35:51.305Z,100059.00
2023-02-03T04:37:26.629Z,100058.00
2023-02-03T04:39:01.209Z,100067.00
2023-02-03T04:40:35.000Z,100063.00
2023-02-03T04:42:08.683Z,100062.00
2023-02-03T04:43:41.876Z,100069.00
2023-02-03T04:45:14.038Z,100074.00
2023-02-03T04:46:47.351Z,100078.00
2023-02-03T04:48:20.431Z,100073.00
2023-02-03T04:49:53.577Z,100082.00
2023-02-03T04:51:25.951Z,100081.00
2023-02-03T04:53:01.039Z,100062.00
2023-02-03T04:54:35.728Z,100059.00
2023-02-03T04:56:09.127Z,100068.00
2023-02-03T04:57:42.274Z,100068.00
2023-02-03T04:59:15.700Z,100060.00
2023-02-03T05:00:48.918Z,100068.00
2023-02-03T05:02:22.374Z,100053.00
2023-02-03T05:03:55.631Z,100039.00
2023-02-03T05:05:28.833Z,100041.00
2023-02-03T05:07:02.285Z,100052.00
2023-02-03T05:08:35.662Z,100036.00
2023-02-03T05:10:11.796Z,100027.00
2023-02-03T05:11:44.941Z,100024.00
2023-02-03T05:13:18.069Z,100023.00
2023-02-03T05:14:51.220Z,100008.00
2023-02-03T05:16:24.495Z,100017.00
2023-02-03T05:17:57.680Z,100031.00
2023-02-03T05:19:30.953Z,100027.00
2023-02-03T05:21:04.090Z,100025.00
2023-02-03T05:22:37.300Z,100041.00
2023-02-03T05:24:10.963Z,100043.00
2023-02-03T05:25:46.653Z,100024.00
2023-02-03T05:27:19.781Z,100028.00
2023-02-03T05:28:56.675Z,100025.00
2023-02-03T05:30:30.963Z,100021.00
2023-02-03T05:32:04.781Z,100020.00
2023-02-03T05:33:38.000Z,100021.00
2023-02-03T05:35:11.168Z,100035.00
2023-02-03T05:36:44.640Z,100032.00
2023-02-03T05:38:17.358Z,100044.00
2023-02-03T05:39:50.754Z,100032.00
2023-02-03T05:41:43.047Z,100027.00
2023-02-03T05:43:16.393Z,100035.00
2023-02-03T05:44:49.458Z,100037.00
2023-02-03T05:46:22.839Z,100023.00
2023-02-03T05:47:55.943Z,100009.00
2023-02-03T05:49:29.086Z,100020.00
2023-02-03T05:51:01.376Z,100021.00
2023-02-03T05:52:34.844Z,100031.00
2023-02-03T05:54:08.720Z,100035.00
2023-02-03T05:55:42.352Z,100030.00
2023-02-03T05:57:18.183Z,100029.00
2023-02-03T05:58:53.478Z,100027.00
2023-02-03T06:00:26.518Z,100038.00
2023-02-03T06:01:59.895Z,100028.00
2023-02-03T06:03:33.290Z,100042.00
2023-02-03T06:05:07.746Z,100035.00
2023-02-03T06:06:40.877Z,100034.00
2023-02-03T06:08:14.199Z,100037.00
2023-02-03T06:09:47.679Z,100033.00
2023-02-03T06:11:21.022Z,100044.00
2023-02-03T06:12:55.793Z,100045.00
2023-02-03T06:14:29.123Z,100046.00
2023-02-03T06:16:02.887Z,100038.00
2023-02-03T06:17:36.975Z,100041.00
2023-02-03T06:19:10.286Z,100040.00
2023-02-03T06:20:43.451Z,100051.00
2023-02-03T06:22:16.674Z,100054.00
2023-02-03T06:23:50.097Z,100064.00
2023-02-03T06:25:24.066Z,100055.00
2023-02-03T06:26:57.211Z,100053.00
2023-02-03T06:28:33.405Z,100044.00
2023-02-03T06:30:07.914Z,100047.00
2023-02-03T06:31:41.115Z,100040.00
2023-02-03T06:33:14.347Z,100047.00
2023-02-03T06:34:47.570Z,100045.00
2023-02-03T06:36:20.719Z,100026.00
2023-02-03T06:37:53.972Z,100051.00
2023-02-03T06:39:27.716Z,100040.00
2023-02-03T06:41:01.002Z,100044.00
2023-02-03T06:42:34.196Z,100048.00
2023-02-03T06:44:09.334Z,100052.00
2023-02-03T06:45:43.168Z,100059.00
2023-02-03T06:47:16.339Z,100053.00
2023-02-03T06:48:49.438Z,100065.00
2023-02-03T06:50:22.511Z,100057.00
2023-02-03T06:51:55.752Z,100052.00
2023-02-03T06:53:28.848Z,100044.00
2023-02-03T06:55:02.007Z,100047.00
2023-02-03T06:56:35.428Z,100054.00
2023-02-03T06:58:08.685Z,100064.00
2023-02-03T06:59:43.152Z,100065.00
2023-02-03T07:01:16.418Z,100048.00
2023-02-03T07:02:55.440Z,100056.00
2023-02-03T07:04:30.114Z,100043.00
2023-02-03T07:06:03.474Z,100051.00
2023-02-03T07:07:39.359Z,100055.00
2023-02-03T07:09:12.922Z,100053.00
2023-02-03T07:10:46.118Z,100055.00
2023-02-03T07:12:20.270Z,100063.00
2023-02-03T07:13:53.727Z,100048.00
2023-02-03T07:15:28.268Z,100060.00
2023-02-03T07:17:02.040Z,100062.00
2023-02-03T07:18:46.882Z,100058.00
2023-02-03T07:20:23.075Z,100063.00
2023-02-03T07:21:56.589Z,100087.00
2023-02-03T07:23:31.448Z,100074.00
2023-02-03T07:25:04.876Z,100067.00
2023-02-03T07:26:39.036Z,100058.00
2023-02-03T07:28:12.986Z,100061.00
2023-02-03T07:29:46.131Z,100070.00
2023-02-03T07:31:20.770Z,100060.00
2023-02-03T07:32:54.652Z,100056.00
2023-02-03T07:34:27.787Z,100066.00
2023-02-03T07:36:01.791Z,100060.00
2023-02-03T07:37:35.040Z,100049.00
2023-02-03T07:39:08.153Z,100041.00
2023-02-03T07:40:41.563Z,100052.00
2023-02-03T07:42:14.739Z,100040.00
2023-02-03T07:43:51.571Z,100040.00
2023-02-03T07:45:25.168Z,100037.00
2023-02-03T07:46:59.587Z,100043.00
2023-02-03T07:48:32.793Z,100049.00
2023-02-03T07:50:06.578Z,100052.00
2023-02-03T07:51:39.770Z,100063.00
2023-02-03T07:53:13.179Z,100064.00
2023-02-03T07:54:46.338Z,100054.00
2023-02-03T07:56:19.423Z,100059.00
2023-02-03T07:57:55.104Z,100053.00
2023-02-03T07:59:28.613Z,100067.00
2023-02-03T08:01:01.890Z,100053.00
2023-02-03T08:02:36.460Z,100054.00
2023-02-03T08:04:12.215Z,100070.00
2023-02-03T08:05:45.363Z,100050.00
2023-02-03T08:07:18.622Z,100060.00
2023-02-03T08:08:51.737Z,100065.00
2023-02-03T08:10:25.024Z,100075.00
2023-02-03T08:11:58.157Z,100085.00
2023-02-03T08:13:31.356Z,100085.00
2023-02-03T08:15:05.241Z,100093.00
2023-02-03T08:16:38.622Z,100086.00
2023-02-03T08:18:13.039Z,100089.00
2023-02-03T08:19:49.124Z,100067.00
2023-02-03T08:21:22.236Z,100065.00
2023-02-03T08:22:55.507Z,100079.00
2023-02-03T08:24:28.828Z,100077.00
2023-02-03T08:26:02.193Z,100069.00
2023-02-03T08:27:35.865Z,100069.00
2023-02-03T08:29:09.021Z,100079.00
2023-02-03T08:30:42.157Z,100073.00
2023-02-03T08:32:19.300Z,100086.00
2023-02-03T08:33:54.041Z,100080.00
2023-02-03T08:35:27.250Z,100081.00
2023-02-03T08:37:00.609Z,100087.00
2023-02-03T08:38:34.269Z,100082.00
2023-02-03T08:40:09.229Z,100093.00
2023-02-03T08:41:42.211Z,100089.00
2023-02-03T08:43:15.565Z,100082.00
2023-02-03T08:44:49.181Z,100070.00
2023-02-03T08:46:22.489Z,100082.00
2023-02-03T08:47:55.720Z,100069.00
2023-02-03T08:49:31.684Z,100069.00
2023-02-03T08:51:12.072Z,100077.00
2023-02-03T08:52:45.225Z,100075.00
2023-02-03T08:54:18.463Z,100062.00
2023-02-03T08:55:54.802Z,100082.00
2023-02-03T08:57:28.916Z,100086.00
2023-02-03T08:59:02.412Z,100092.00
2023-02-03T09:00:35.492Z,100086.00
2023-02-03T09:02:15.124Z,100082.00
2023-02-03T09:03:48.267Z,100089.00
2023-02-03T09:05:23.140Z,100080.00
2023-02-03T09:06:56.296Z,100091.00
2023-02-03T09:08:30.805Z,100095.00
2023-02-03T09:10:05.747Z,100091.00
2023-02-03T09:11:39.339Z,100105.00
2023-02-03T09:13:12.596Z,100091.00
2023-02-03T09:14:45.951Z,100093.00
2023-02-03T09:16:22.066Z,100102.00
2023-02-03T09:17:57.509Z,100094.00
2023-02-03T09:19:31.106Z,100094.00
2023-02-03T09:21:08.461Z,100102.00
2023-02-03T09:22:41.887Z,100084.00
2023-02-03T09:24:15.527Z,100098.00
2023-02-03T09:25:49.646Z,100098.00
2023-02-03T09:27:23.021Z,100097.00
2023-02-03T09:28:56.428Z,100089.00
2023-02-03T09:30:30.312Z,100094.00
2023-02-03T09:32:07.689Z,100094.00
2023-02-03T09:33:41.806Z,100086.00
2023-02-03T09:35:14.887Z,100088.00
2023-02-03T09:36:50.021Z,100087.00
2023-02-03T09:38:23.215Z,100094.00
2023-02-03T09:39:58.306Z,100100.00
2023-02-03T09:41:56.756Z,100095.00
2023-02-03T09:43:42.904Z,100086.00
2023-02-03T09:45:25.490Z,100089.00
2023-02-03T09:47:03.392Z,100091.00
2023-02-03T09:48:43.712Z,100095.00
2023-02-03T09:50:25.135Z,100095.00
2023-02-03T09:52:09.034Z,100084.00
2023-02-03T09:53:49.874Z,100090.00
2023-02-03T09:55:33.871Z,100093.00
2023-02-03T09:57:16.728Z,100100.00
2023-02-03T09:58:50.035Z,100091.00
2023-02-03T10:00:30.389Z,100084.00
2023-02-03T10:02:36.510Z,100077.00
2023-02-03T10:04:27.886Z,100085.00
2023-02-03T10:06:17.457Z,100091.00
2023-02-03T10:08:08.841Z,100075.00
2023-02-03T10:09:58.111Z,100075.00
2023-02-03T10:11:57.608Z,100089.00
2023-02-03T10:13:41.473Z,100078.00
2023-02-03T10:15:46.394Z,100069.00
2023-02-03T10:17:33.426Z,100064.00
2023-02-03T10:19:16.626Z,100083.00
2023-02-03T10:20:56.069Z,100081.00
2023-02-03T10:22:33.428Z,100085.00
2023-02-03T10:24:16.369Z,100079.00
2023-02-03T10:25:57.370Z,100095.00
2023-02-03T10:27:34.454Z,100088.00
2023-02-03T10:29:20.051Z,100088.00
2023-02-03T10:30:58.150Z,100100.00
2023-02-03T10:32:31.420Z,100100.00
2023-02-03T10:34:12.818Z,100106.00
2023-02-03T10:35:55.080Z,100093.00
2023-02-03T10:37:33.251Z,100096.00
2023-02-03T10:39:20.136Z,100086.00
2023-02-03T10:40:53.324Z,100094.00
2023-02-03T10:42:47.052Z,100114.00
2023-02-03T10:44:19.550Z,100118.00
2023-02-03T10:45:52.688Z,100112.00
2023-02-03T10:47:34.590Z,100124.00
2023-02-03T10:49:07.841Z,100114.00
2023-02-03T10:50:47.527Z,100105.00
2023-02-03T10:52:30.932Z,100112.00
2023-02-03T10:54:04.314Z,100119.00
2023-02-03T10:55:38.850Z,100103.00
2023-02-03T10:57:16.127Z,100098.00
2023-02-03T10:58:52.768Z,100099.00
2023-02-03T11:00:31.879Z,100105.00
2023-02-03T11:02:25.079Z,100106.00
2023-02-03T11:04:04.979Z,100106.00
2023-02-03T11:05:38.314Z,100098.00
2023-02-03T11:07:26.243Z,100100.00
2023-02-03T11:09:00.352Z,100091.00
2023-02-03T11:10:37.051Z,100089.00
2023-02-03T11:12:16.881Z,100081.00
2023-02-03T11:13:55.301Z,100082.00
2023-02-03T11:15:28.746Z,100078.00
2023-02-03T11:17:09.581Z,100088.00
2023-02-03T11:18:47.632Z,100105.00
2023-02-03T11:20:22.468Z,100097.00
2023-02-03T11:21:56.833Z,100098.00
2023-02-03T11:23:30.242Z,100103.00
2023-02-03T11:25:06.029Z,100102.00
2023-02-03T11:26:46.459Z,100110.00
2023-02-03T11:28:21.956Z,100117.00
2023-02-03T11:30:14.362Z,100109.00
2023-02-03T11:31:52.437Z,100118.00
2023-02-03T11:33:29.426Z,100116.00
2023-02-03T11:35:05.379Z,100115.00
2023-02-03T11:36:38.923Z,100111.00
2023-02-03T11:38:31.945Z,100118.00
2023-02-03T11:40:28.318Z,100131.00
2023-02-03T11:42:02.151Z,100124.00
2023-02-03T11:43:36.658Z,100125.00
2023-02-03T11:45:16.396Z,100127.00
2023-02-03T11:46:54.767Z,100120.00
2023-02-03T11:48:33.118Z,100130.00
2023-02-03T11:50:27.421Z,100122.00
2023-02-03T11:52:13.444Z,100102.00
2023-02-03T11:54:06.390Z,100116.00
2023-02-03T11:55:55.050Z,100110.00
2023-02-03T11:57:43.201Z,100105.00
2023-02-03T11:59:51.900Z,100106.00
2023-02-03T12:01:46.504Z,100109.00
2023-02-03T12:04:07.259Z,100114.00
2023-02-03T12:06:11.898Z,100108.00
2023-02-03T12:08:04.338Z,100093.00
2023-02-03T12:09:52.618Z,100099.00
2023-02-03T12:11:44.983Z,100100.00
2023-02-03T12:13:41.189Z,100100.00
2023-02-03T12:15:35.823Z,100100.00
2023-02-03T12:17:46.564Z,100091.00
2023-02-03T12:19:32.250Z,100097.00
2023-02-03T12:21:32.600Z,100091.00
2023-02-03T12:23:23.481Z,100096.00
2023-02-03T12:25:11.336Z,100098.00
2023-02-03T12:26:59.055Z,100101.00
2023-02-03T12:28:48.545Z,100108.00
2023-02-03T12:30:30.095Z,100117.00
2023-02-03T12:32:15.650Z,100113.00
2023-02-03T12:33:57.471Z,100117.00
2023-02-03T12:35:40.134Z,100114.00
2023-02-03T12:37:20.293Z,100116.00
2023-02-03T12:39:02.800Z,100115.00
2023-02-03T12:40:44.099Z,100108.00
2023-02-03T12:42:24.943Z,100116.00
2023-02-03T12:44:05.268Z,100109.00
2023-02-03T12:45:41.973Z,100111.00
2023-02-03T12:47:25.352Z,100098.00
2023-02-03T12:49:06.489Z,100100.00
2023-02-03T12:50:45.912Z,100103.00
2023-02-03T12:52:29.874Z,100105.00
2023-02-03T12:54:10.144Z,100105.00
2023-02-03T12:55:50.258Z,100095.00
2023-02-03T12:57:31.597Z,100103.00
2023-02-03T12:59:15.893Z,100117.00
2023-02-03T13:00:57.355Z,100107.00
2023-02-03T13:02:43.572Z,100111.00
2023-02-03T13:04:29.444Z,100109.00
2023-02-03T13:06:11.630Z,100102.00
2023-02-03T13:07:55.119Z,100109.00
2023-02-03T13:09:38.941Z,100099.00
2023-02-03T13:11:25.352Z,100119.00
2023-02-03T13:13:00.263Z,100110.00
2023-02-03T13:14:38.484Z,100106.00
2023-02-03T13:16:16.907Z,100119.00
2023-02-03T13:17:56.551Z,100116.00
2023-02-03T13:19:42.033Z,100111.00
2023-02-03T13:21:16.137Z,100120.00
2023-02-03T13:22:52.309Z,100117.00
2023-02-03T13:24:29.280Z,100119.00
2023-02-03T13:26:32.888Z,100117.00
2023-02-03T13:28:19.962Z,100116.00
2023-02-03T13:30:18.047Z,100116.00
2023-02-03T13:32:12.391Z,100115.00
2023-02-03T13:34:17.691Z,100123.00
2023-02-03T13:36:09.592Z,100111.00
2023-02-03T13:38:35.313Z,100121.00
2023-02-03T13:40:23.864Z,100119.00
2023-02-03T13:42:14.222Z,100107.00
2023-02-03T13:43:51.271Z,100123.00
2023-02-03T13:45:31.115Z,100105.00
2023-02-03T13:47:07.111Z,100099.00
2023-02-03T13:48:46.038Z,100093.00
2023-02-03T13:50:24.486Z,100097.00
2023-02-03T13:51:58.225Z,100100.00
2023-02-03T13:53:39.120Z,100097.00
2023-02-03T13:55:31.597Z,100097.00
2023-02-03T13:57:07.940Z,100108.00
2023-02-03T13:58:41.211Z,100109.00
2023-02-03T14:01:04.263Z,100108.00
2023-02-03T14:02:54.414Z,100107.00
2023-02-03T14:04:54.517Z,100102.00
2023-02-03T14:07:00.919Z,100111.00
2023-02-03T14:08:55.182Z,100116.00
2023-02-03T14:10:29.748Z,100118.00
2023-02-03T14:12:36.752Z,100122.00
2023-02-03T14:14:45.940Z,100121.00
2023-02-03T14:16:26.570Z,100122.00
2023-02-03T14:18:22.538Z,100116.00
2023-02-03T14:19:56.663Z,100114.00
2023-02-03T14:21:39.490Z,100106.00
2023-02-03T14:23:26.274Z,100110.00
2023-02-03T14:25:07.857Z,100117.00
2023-02-03T14:26:44.619Z,100104.00
2023-02-03T14:28:23.310Z,100113.00
2023-02-03T14:30:09.682Z,100108.00
2023-02-03T14:32:00.428Z,100112.00
2023-02-03T14:34:14.855Z,100134.00
2023-02-03T14:35:48.240Z,100126.00
2023-02-03T14:37:26.088Z,100147.00
2023-02-03T14:39:03.814Z,100160.00
2023-02-03T14:40:51.677Z,100168.00
2023-02-03T14:43:11.577Z,100184.00
2023-02-03T14:45:04.323Z,100188.00
2023-02-03T14:47:04.826Z,100186.00
2023-02-03T14:49:14.117Z,100202.00
2023-02-03T14:51:04.961Z,100201.00
2023-02-03T14:53:13.826Z,100200.00
2023-02-03T14:55:18.814Z,100222.00
2023-02-03T14:57:19.905Z,100213.00
2023-02-03T14:58:59.236Z,100232.00
2023-02-03T15:00:37.446Z,100216.00
2023-02-03T15:02:18.969Z,100233.00
2023-02-03T15:04:24.323Z,100221.00
2023-02-03T15:06:03.361Z,100224.00
2023-02-03T15:07:44.652Z,100239.00
2023-02-03T15:09:29.589Z,100240.00
2023-02-03T15:11:24.020Z,100240.00
2023-02-03T15:12:59.391Z,100245.00
2023-02-03T15:14:32.550Z,100241.00
2023-02-03T15:16:13.496Z,100251.00
2023-02-03T15:17:47.531Z,100240.00
2023-02-03T15:19:26.224Z,100249.00
2023-02-03T15:21:00.602Z,100244.00
2023-02-03T15:22:40.206Z,100251.00
2023-02-03T15:24:21.578Z,100253.00
2023-02-03T15:25:56.579Z,100257.00
2023-02-03T15:27:32.547Z,100260.00
2023-02-03T15:29:07.031Z,100261.00
2023-02-03T15:30:42.212Z,100256.00
2023-02-03T15:32:21.570Z,100268.00
2023-02-03T15:34:01.681Z,100263.00
2023-02-03T15:35:40.375Z,100273.00
2023-02-03T15:37:21.195Z,100273.00
2023-02-03T15:39:06.703Z,100267.00
2023-02-03T15:40:46.315Z,100268.00
2023-02-03T15:42:26.796Z,100275.00
2023-02-03T15:44:08.625Z,100273.00
2023-02-03T15:45:49.135Z,100268.00
2023-02-03T15:47:33.039Z,100268.00
2023-02-03T15:49:17.976Z,100271.00
2023-02-03T15:51:01.638Z,100269.00
2023-02-03T15:52:41.274Z,100268.00
2023-02-03T15:54:22.949Z,100280.00
2023-02-03T15:56:03.937Z,100276.00
2023-02-03T15:57:38.227Z,100283.00
2023-02-03T15:59:24.329Z,100273.00
2023-02-03T16:01:01.687Z,100267.00
2023-02-03T16:02:42.574Z,100278.00
2023-02-03T16:04:16.483Z,100279.00
2023-02-03T16:05:52.487Z,100287.00
2023-02-03T16:07:31.045Z,100287.00
2023-02-03T16:09:06.884Z,100291.00
2023-02-03T16:10:40.086Z,100292.00
2023-02-03T16:12:22.819Z,100292.00
2023-02-03T16:13:59.571Z,100291.00
2023-02-03T16:15:38.338Z,100299.00
2023-02-03T16:17:34.675Z,100309.00
2023-02-03T16:19:14.809Z,100297.00
2023-02-03T16:20:53.187Z,100292.00
2023-02-03T16:22:32.072Z,100295.00
2023-02-03T16:24:07.465Z,100293.00
2023-02-03T16:25:41.167Z,100296.00
2023-02-03T16:27:32.518Z,100300.00
2023-02-03T16:29:33.634Z,100300.00
2023-02-03T16:31:37.172Z,100303.00
2023-02-03T16:33:35.229Z,100301.00
2023-02-03T16:35:29.245Z,100311.00
2023-02-03T16:37:30.494Z,100315.00
2023-02-03T16:39:29.740Z,100311.00
2023-02-03T16:41:37.203Z,100320.00
2023-02-03T16:43:32.261Z,100311.00
2023-02-03T16:45:33.282Z,100319.00
2023-02-03T16:47:43.014Z,100324.00
2023-02-03T16:49:34.047Z,100331.00
2023-02-03T16:51:15.981Z,100322.00
2023-02-03T16:52:50.866Z,100330.00
2023-02-03T16:54:24.611Z,100334.00
2023-02-03T16:56:02.097Z,100333.00
2023-02-03T16:57:35.183Z,100340.00
2023-02-03T16:59:08.717Z,100342.00
2023-02-03T17:00:44.050Z,100352.00
2023-02-03T17:02:17.357Z,100342.00
2023-02-03T17:03:50.821Z,100345.00
2023-02-03T17:05:24.030Z,100341.00
2023-02-03T17:06:57.211Z,100334.00
2023-02-03T17:08:32.188Z,100340.00
2023-02-03T17:10:06.031Z,100344.00
2023-02-03T17:11:40.232Z,100350.00
2023-02-03T17:13:13.983Z,100351.00
2023-02-03T17:14:47.129Z,100351.00
2023-02-03T17:16:25.713Z,100356.00
2023-02-03T17:17:58.820Z,100355.00
2023-02-03T17:19:32.135Z,100363.00
2023-02-03T17:21:11.258Z,100351.00
2023-02-03T17:22:44.743Z,100356.00
2023-02-03T17:24:19.507Z,100351.00
2023-02-03T17:25:52.690Z,100357.00
2023-02-03T17:27:26.037Z,100367.00
2023-02-03T17:29:02.952Z,100354.00
2023-02-03T17:30:36.827Z,100358.00
2023-02-03T17:32:12.595Z,100355.00
2023-02-03T17:33:53.372Z,100356.00
2023-02-03T17:35:26.736Z,100355.00
2023-02-03T17:37:00.063Z,100352.00
2023-02-03T17:53:33.114Z,100381.00
2023-02-03T17:55:07.950Z,100376.00
2023-02-03T17:56:42.601Z,100374.00
2023-02-03T17:58:16.301Z,100380.00
2023-02-03T17:59:54.052Z,100381.00
2023-02-03T18:01:28.339Z,100387.00
2023-02-03T18:03:01.969Z,100384.00
2023-02-03T18:04:35.865Z,100395.00
2023-02-03T18:06:11.144Z,100387.00
2023-02-03T18:07:44.373Z,100395.00
2023-02-03T18:09:17.590Z,100390.00
2023-02-03T18:10:50.724Z,100383.00
2023-02-03T18:12:25.346Z,100397.00
2023-02-03T18:13:58.914Z,100388.00
2023-02-03T18:15:32.963Z,100387.00
2023-02-03T18:17:06.384Z,100396.00
2023-02-03T18:18:39.671Z,100399.00
2023-02-03T18:20:14.529Z,100395.00
2023-02-03T18:21:48.341Z,100403.00
2023-02-03T18:23:22.331Z,100402.00
2023-02-03T18:24:56.274Z,100405.00
2023-02-03T18:26:37.159Z,100407.00
2023-02-03T18:28:11.979Z,100419.00
2023-02-03T18:29:49.067Z,100420.00
2023-02-03T18:31:22.634Z,100428.00
2023-02-03T18:32:57.450Z,100429.00
2023-02-03T18:34:30.779Z,100430.00
2023-02-03T18:36:06.133Z,100431.00
2023-02-03T18:37:39.275Z,100422.00
2023-02-03T18:39:14.181Z,100425.00
2023-02-03T18:40:47.465Z,100431.00
2023-02-03T18:42:20.682Z,100425.00
2023-02-03T18:43:55.429Z,100415.00
2023-02-03T18:45:29.308Z,100429.00
2023-02-03T18:47:06.800Z,100428.00
2023-02-03T18:48:41.136Z,100421.00
2023-02-03T18:50:14.386Z,100430.00
2023-02-03T18:51:47.791Z,100424.00
2023-02-03T18:53:21.417Z,100429.00
2023-02-03T18:54:55.112Z,100422.00
2023-02-03T18:56:34.862Z,100428.00
2023-02-03T18:58:08.367Z,100425.00
2023-02-03T18:59:43.838Z,100429.00
2023-02-03T19:01:27.359Z,100431.00
2023-02-03T19:03:00.761Z,100428.00
2023-02-03T19:04:34.516Z,100422.00
2023-02-03T19:06:11.156Z,100446.00